F/v_l'omerta — FHXG — position and weather

sailwx.info

Track history (hours):
 
Tides and Currents Weather Stations Pressure Air Temp Water Temp Dewpoint Dewpoint Depression Visibility Wind Speed Wind Dir Waves Ship Positions

F/v_l'omerta

Last reported at 2014-Dec-19 06:33 UTC. Time now 2014-Dec-21 03:19 UTC.
Position N 46°27' W 002°21'.

Length 18 m.

Type: Fishing. MMSI: 227903000.

Date/timePositionNaut miles runAvg speedWind from/ knotsBaromVisibWave heightAir tempDewpointWater temp
2014-Dec-19 06:33N 46°27' W 002°21'9 9.0
2014-Dec-19 05:33N 46°25' W 002°08'9 9.0
2014-Dec-19 04:33N 46°24' W 001°55'4 3.5
2014-Dec-19 03:33N 46°23' W 001°50'2 2.4
2014-Dec-19 02:33N 46°21' W 001°48'3 2.7
2014-Dec-19 01:33N 46°22' W 001°44'4 3.9
2014-Dec-19 00:33N 46°24' W 001°48'6 5.7
2014-Dec-18 23:33N 46°30' W 001°47'0 0.0
2014-Dec-18 22:33N 46°30' W 001°47'3 2.5
2014-Dec-18 21:33N 46°29' W 001°51'9 8.9
2014-Dec-18 20:33N 46°31' W 002°03'11 8.8
2014-Dec-18 19:17N 46°35' W 002°18'3 0.1
2014-Dec-17 02:18N 46°32' W 002°18'7 9.0
2014-Dec-17 01:33N 46°30' W 002°09'9 9.0
2014-Dec-17 00:33N 46°29' W 001°56'6 6.0
2014-Dec-16 23:33N 46°30' W 001°47'0 0.0
2014-Dec-16 22:33N 46°30' W 001°47'4 3.7
2014-Dec-16 21:33N 46°29' W 001°52'10 9.7
2014-Dec-16 20:33N 46°30' W 002°06'  
2014-Dec-14 12:08N 46°33' W 002°26'5 3.3
2014-Dec-14 10:33N 46°36' W 002°20'3 3.2
2014-Dec-14 09:33N 46°35' W 002°16'6 6.3
2014-Dec-14 08:32N 46°32' W 002°07'9 9.3
2014-Dec-14 07:33N 46°29' W 001°55'5 5.0
2014-Dec-14 06:33N 46°30' W 001°48'0 0.2
2014-Dec-14 05:33N 46°30' W 001°47'0 0.0
2014-Dec-14 04:33N 46°30' W 001°47'0 0.0
2014-Dec-14 03:33N 46°30' W 001°47'0 0.0
2014-Dec-14 02:33N 46°30' W 001°47'0 0.0
2014-Dec-14 01:33N 46°30' W 001°47'0 0.0
2014-Dec-14 00:33N 46°30' W 001°47'0 0.0
2014-Dec-13 23:33N 46°30' W 001°47'0 0.0
2014-Dec-13 22:33N 46°30' W 001°47'0 0.0
2014-Dec-13 21:33N 46°30' W 001°47'0 0.0
2014-Dec-13 20:33N 46°30' W 001°47'0 0.0
2014-Dec-13 19:33N 46°30' W 001°47'0 0.0
2014-Dec-13 18:33N 46°30' W 001°47'0 0.0
2014-Dec-13 17:33N 46°30' W 001°47'0 0.0
2014-Dec-13 16:34N 46°30' W 001°47'0 0.0
2014-Dec-13 15:34N 46°30' W 001°47'0 0.0
2014-Dec-13 14:33N 46°30' W 001°47'0 0.0
2014-Dec-13 13:34N 46°30' W 001°47'0 0.0
2014-Dec-13 12:33N 46°30' W 001°47'0 0.0
2014-Dec-13 11:33N 46°30' W 001°47'0 0.0
2014-Dec-13 10:34N 46°30' W 001°47'0 0.0
2014-Dec-13 09:34N 46°30' W 001°47'0 0.0
2014-Dec-13 08:33N 46°30' W 001°47'0 0.0
2014-Dec-13 07:34N 46°30' W 001°47'0 0.0
2014-Dec-13 06:33N 46°30' W 001°47'0 0.0
2014-Dec-13 05:34N 46°30' W 001°47'0 0.0
2014-Dec-13 04:34N 46°30' W 001°47'0 0.0
2014-Dec-13 03:33N 46°30' W 001°47'0 0.0
2014-Dec-13 02:34N 46°30' W 001°47'0 0.0
2014-Dec-13 01:34N 46°30' W 001°47'0 0.0
2014-Dec-13 00:33N 46°30' W 001°47'0 0.0
2014-Dec-12 23:34N 46°30' W 001°47'0 0.0
2014-Dec-12 22:33N 46°30' W 001°47'0 0.0
2014-Dec-12 21:34N 46°30' W 001°47'0 0.0
2014-Dec-12 20:34N 46°30' W 001°47'0 0.0
2014-Dec-12 19:34N 46°30' W 001°47'0 0.0
2014-Dec-12 18:33N 46°30' W 001°47'0 0.0
2014-Dec-12 17:34N 46°30' W 001°47'0 0.0
2014-Dec-12 16:34N 46°30' W 001°47'0 0.0
2014-Dec-12 15:34N 46°30' W 001°47'0 0.0
2014-Dec-12 14:34N 46°30' W 001°47'0 0.0
2014-Dec-12 13:34N 46°30' W 001°47'0 0.0
2014-Dec-12 12:34N 46°30' W 001°47'0 0.0
2014-Dec-12 11:34N 46°30' W 001°47'0 0.0
2014-Dec-12 10:34N 46°30' W 001°47'0 0.0
2014-Dec-12 09:34N 46°30' W 001°47'0 0.0
2014-Dec-12 08:33N 46°30' W 001°47'0 0.0
2014-Dec-12 07:33N 46°30' W 001°47'0 0.0
2014-Dec-12 06:33N 46°30' W 001°47'0 0.0
2014-Dec-12 05:34N 46°30' W 001°47'0 0.0
2014-Dec-12 04:34N 46°30' W 001°47'0 0.0
2014-Dec-12 03:34N 46°30' W 001°47'0 0.0
2014-Dec-12 02:34N 46°30' W 001°47'0 0.0
2014-Dec-12 01:34N 46°30' W 001°47'0 0.0
2014-Dec-12 00:34N 46°30' W 001°47'0 0.0
2014-Dec-11 23:33N 46°30' W 001°47'0 0.0
2014-Dec-11 22:34N 46°30' W 001°47'0 0.0
2014-Dec-11 21:34N 46°30' W 001°47'0 0.0
2014-Dec-11 20:33N 46°30' W 001°47'0 0.0
2014-Dec-11 19:34N 46°30' W 001°47'0 0.0
2014-Dec-11 18:34N 46°30' W 001°47'0 0.0
2014-Dec-11 17:33N 46°30' W 001°47'0 0.0
2014-Dec-11 16:34N 46°30' W 001°47'0 0.0
2014-Dec-11 15:34N 46°30' W 001°47'0 0.0
2014-Dec-11 14:34N 46°30' W 001°47'0 0.0
2014-Dec-11 13:34N 46°30' W 001°47'0 0.0
2014-Dec-11 12:34N 46°30' W 001°47'0 0.0
2014-Dec-11 11:34N 46°30' W 001°47'0 0.0
2014-Dec-11 10:34N 46°30' W 001°47'0 0.0
2014-Dec-11 09:34N 46°30' W 001°47'0 0.0
2014-Dec-11 08:34N 46°30' W 001°47'0 0.0
2014-Dec-11 07:34N 46°30' W 001°47'0 0.2
2014-Dec-11 06:34N 46°30' W 001°48'0 0.0
2014-Dec-11 05:34N 46°30' W 001°48'0 0.0
2014-Dec-11 04:33N 46°30' W 001°48'0 0.0
2014-Dec-11 03:33N 46°30' W 001°48'0 0.0
2014-Dec-11 02:33N 46°30' W 001°48'0 0.0
2014-Dec-11 01:33N 46°30' W 001°48'0 0.0
2014-Dec-11 00:34N 46°30' W 001°48'0 0.0
2014-Dec-10 23:33N 46°30' W 001°48'0 0.0
2014-Dec-10 22:34N 46°30' W 001°48'0 0.0
2014-Dec-10 21:34N 46°30' W 001°48'0 0.2
2014-Dec-10 20:34N 46°30' W 001°47'0 0.2
2014-Dec-10 19:34N 46°30' W 001°47'4 4.3
2014-Dec-10 18:34N 46°29' W 001°54'10 9.8
2014-Dec-10 17:33N 46°32' W 002°08'  
Track history (hours):
 
Tides and Currents Weather Stations Pressure Air Temp Water Temp Dewpoint Dewpoint Depression Visibility Wind Speed Wind Dir Waves Ship Positions

F/v_l'omerta

Last reported at 2014-Dec-19 06:33 UTC. Time now 2014-Dec-21 03:19 UTC.
Position N 46°27' W 002°21'.

Length 18 m.

Type: Fishing. MMSI: 227903000.

Date/timePositionNaut miles runAvg speedWind from/ knotsBaromVisibWave heightAir tempDewpointWater temp
2014-Dec-19 06:33N 46°27' W 002°21'9 9.0
2014-Dec-19 05:33N 46°25' W 002°08'9 9.0
2014-Dec-19 04:33N 46°24' W 001°55'4 3.5
2014-Dec-19 03:33N 46°23' W 001°50'2 2.4
2014-Dec-19 02:33N 46°21' W 001°48'3 2.7
2014-Dec-19 01:33N 46°22' W 001°44'4 3.9
2014-Dec-19 00:33N 46°24' W 001°48'6 5.7
2014-Dec-18 23:33N 46°30' W 001°47'0 0.0
2014-Dec-18 22:33N 46°30' W 001°47'3 2.5
2014-Dec-18 21:33N 46°29' W 001°51'9 8.9
2014-Dec-18 20:33N 46°31' W 002°03'11 8.8
2014-Dec-18 19:17N 46°35' W 002°18'3 0.1
2014-Dec-17 02:18N 46°32' W 002°18'7 9.0
2014-Dec-17 01:33N 46°30' W 002°09'9 9.0
2014-Dec-17 00:33N 46°29' W 001°56'6 6.0
2014-Dec-16 23:33N 46°30' W 001°47'0 0.0
2014-Dec-16 22:33N 46°30' W 001°47'4 3.7
2014-Dec-16 21:33N 46°29' W 001°52'10 9.7
2014-Dec-16 20:33N 46°30' W 002°06'  
2014-Dec-14 12:08N 46°33' W 002°26'5 3.3
2014-Dec-14 10:33N 46°36' W 002°20'3 3.2
2014-Dec-14 09:33N 46°35' W 002°16'6 6.3
2014-Dec-14 08:32N 46°32' W 002°07'9 9.3
2014-Dec-14 07:33N 46°29' W 001°55'5 5.0
2014-Dec-14 06:33N 46°30' W 001°48'0 0.2
2014-Dec-14 05:33N 46°30' W 001°47'0 0.0
2014-Dec-14 04:33N 46°30' W 001°47'0 0.0
2014-Dec-14 03:33N 46°30' W 001°47'0 0.0
2014-Dec-14 02:33N 46°30' W 001°47'0 0.0
2014-Dec-14 01:33N 46°30' W 001°47'0 0.0
2014-Dec-14 00:33N 46°30' W 001°47'0 0.0
2014-Dec-13 23:33N 46°30' W 001°47'0 0.0
2014-Dec-13 22:33N 46°30' W 001°47'0 0.0
2014-Dec-13 21:33N 46°30' W 001°47'0 0.0
2014-Dec-13 20:33N 46°30' W 001°47'0 0.0
2014-Dec-13 19:33N 46°30' W 001°47'0 0.0
2014-Dec-13 18:33N 46°30' W 001°47'0 0.0
2014-Dec-13 17:33N 46°30' W 001°47'0 0.0
2014-Dec-13 16:34N 46°30' W 001°47'0 0.0
2014-Dec-13 15:34N 46°30' W 001°47'0 0.0
2014-Dec-13 14:33N 46°30' W 001°47'0 0.0
2014-Dec-13 13:34N 46°30' W 001°47'0 0.0
2014-Dec-13 12:33N 46°30' W 001°47'0 0.0
2014-Dec-13 11:33N 46°30' W 001°47'0 0.0
2014-Dec-13 10:34N 46°30' W 001°47'0 0.0
2014-Dec-13 09:34N 46°30' W 001°47'0 0.0
2014-Dec-13 08:33N 46°30' W 001°47'0 0.0
2014-Dec-13 07:34N 46°30' W 001°47'0 0.0
2014-Dec-13 06:33N 46°30' W 001°47'0 0.0
2014-Dec-13 05:34N 46°30' W 001°47'0 0.0
2014-Dec-13 04:34N 46°30' W 001°47'0 0.0
2014-Dec-13 03:33N 46°30' W 001°47'0 0.0
2014-Dec-13 02:34N 46°30' W 001°47'0 0.0
2014-Dec-13 01:34N 46°30' W 001°47'0 0.0
2014-Dec-13 00:33N 46°30' W 001°47'0 0.0
2014-Dec-12 23:34N 46°30' W 001°47'0 0.0
2014-Dec-12 22:33N 46°30' W 001°47'0 0.0
2014-Dec-12 21:34N 46°30' W 001°47'0 0.0
2014-Dec-12 20:34N 46°30' W 001°47'0 0.0
2014-Dec-12 19:34N 46°30' W 001°47'0 0.0
2014-Dec-12 18:33N 46°30' W 001°47'0 0.0
2014-Dec-12 17:34N 46°30' W 001°47'0 0.0
2014-Dec-12 16:34N 46°30' W 001°47'0 0.0
2014-Dec-12 15:34N 46°30' W 001°47'0 0.0
2014-Dec-12 14:34N 46°30' W 001°47'0 0.0
2014-Dec-12 13:34N 46°30' W 001°47'0 0.0
2014-Dec-12 12:34N 46°30' W 001°47'0 0.0
2014-Dec-12 11:34N 46°30' W 001°47'0 0.0
2014-Dec-12 10:34N 46°30' W 001°47'0 0.0
2014-Dec-12 09:34N 46°30' W 001°47'0 0.0
2014-Dec-12 08:33N 46°30' W 001°47'0 0.0
2014-Dec-12 07:33N 46°30' W 001°47'0 0.0
2014-Dec-12 06:33N 46°30' W 001°47'0 0.0
2014-Dec-12 05:34N 46°30' W 001°47'0 0.0
2014-Dec-12 04:34N 46°30' W 001°47'0 0.0
2014-Dec-12 03:34N 46°30' W 001°47'0 0.0
2014-Dec-12 02:34N 46°30' W 001°47'0 0.0
2014-Dec-12 01:34N 46°30' W 001°47'0 0.0
2014-Dec-12 00:34N 46°30' W 001°47'0 0.0
2014-Dec-11 23:33N 46°30' W 001°47'0 0.0
2014-Dec-11 22:34N 46°30' W 001°47'0 0.0
2014-Dec-11 21:34N 46°30' W 001°47'0 0.0
2014-Dec-11 20:33N 46°30' W 001°47'0 0.0
2014-Dec-11 19:34N 46°30' W 001°47'0 0.0
2014-Dec-11 18:34N 46°30' W 001°47'0 0.0
2014-Dec-11 17:33N 46°30' W 001°47'0 0.0
2014-Dec-11 16:34N 46°30' W 001°47'0 0.0
2014-Dec-11 15:34N 46°30' W 001°47'0 0.0
2014-Dec-11 14:34N 46°30' W 001°47'0 0.0
2014-Dec-11 13:34N 46°30' W 001°47'0 0.0
2014-Dec-11 12:34N 46°30' W 001°47'0 0.0
2014-Dec-11 11:34N 46°30' W 001°47'0 0.0
2014-Dec-11 10:34N 46°30' W 001°47'0 0.0
2014-Dec-11 09:34N 46°30' W 001°47'0 0.0
2014-Dec-11 08:34N 46°30' W 001°47'0 0.0
2014-Dec-11 07:34N 46°30' W 001°47'0 0.2
2014-Dec-11 06:34N 46°30' W 001°48'0 0.0
2014-Dec-11 05:34N 46°30' W 001°48'0 0.0
2014-Dec-11 04:33N 46°30' W 001°48'0 0.0
2014-Dec-11 03:33N 46°30' W 001°48'0 0.0
2014-Dec-11 02:33N 46°30' W 001°48'0 0.0
2014-Dec-11 01:33N 46°30' W 001°48'0 0.0
2014-Dec-11 00:34N 46°30' W 001°48'0 0.0
2014-Dec-10 23:33N 46°30' W 001°48'0 0.0
2014-Dec-10 22:34N 46°30' W 001°48'0 0.0
2014-Dec-10 21:34N 46°30' W 001°48'0 0.2
2014-Dec-10 20:34N 46°30' W 001°47'0 0.2
2014-Dec-10 19:34N 46°30' W 001°47'4 4.3
2014-Dec-10 18:34N 46°29' W 001°54'10 9.8
2014-Dec-10 17:33N 46°32' W 002°08'  

Dump ship's entire track history